Main page
METAR-TAF:

METAR-TAF

Airports :

Saint-Étienne–Bouthéon Airport

Saint-Etienne, France

latitude: 45-32N, longitude: 004-18E, elevation: 404 m

Current weather observation

The report was made 34 minutes ago, at 01:00 UTC
Wind 7 kt from the North, varying between North/Northwest and Northeast
Temperature 17°C
Humidity 63%
Pressure 1022 hPa
Visibility 10 km or more
Overcast at a height of 3300 ft

METAR: LFMH 220100Z AUTO 01007KT 340V040 9999 OVC033 17/10 Q1022

Time: 03:34 (01:34 UTC)

Forecast

The report was made 8 hours and 1 minutes ago, at 17:33 UTC
Forecast valid from 21 at 17 UTC to 22 at 15 UTC
Wind 12 kt from the North
Visibility 10 km or more
no clouds below 1500 m and no cumulonimbus
Probability 30% :
Temporary
from 21 at 18 UTC to 21 at 22 UTC
Wind 15 kt from the North/Northwest with gusts up to 25 kt
Temporary
from 21 at 20 UTC to 22 at 04 UTC
Broken clouds at a height of 4000 ft

TAF: LFMH 211733Z 2117/2215 36012KT CAVOK PROB30 TEMPO 2118/2122 34015G25KT TEMPO 2120/2204 BKN040

Weather observations and forecasts of more than 4000 airports (METAR and TAF reports).

The available stations are represented by yellow and red dots on the map.

Hover mouse over dot to see the name of the station.

Then click to see weather observations and forecasts.

To change the map : click on the green buttons with a black cross to zoom in, on the green button with a dash to zoom out, or on the green arrows for adjacent maps.


METAR-TAF: